createdAt,value
2023-01-11T00:00:51.733Z,946.41
2023-01-11T00:03:18.134Z,946.43
2023-01-11T00:05:44.430Z,946.44
2023-01-11T00:08:10.788Z,946.45
2023-01-11T00:10:37.092Z,946.43
2023-01-11T00:13:03.525Z,946.40
2023-01-11T00:15:29.860Z,946.40
2023-01-11T00:17:56.198Z,946.43
2023-01-11T00:20:22.528Z,946.46
2023-01-11T00:22:48.966Z,946.57
2023-01-11T00:25:15.279Z,946.56
2023-01-11T00:27:41.664Z,946.61
2023-01-11T00:30:08.009Z,946.65
2023-01-11T00:32:34.348Z,946.61
2023-01-11T00:35:00.704Z,946.61
2023-01-11T00:37:27.063Z,946.60
2023-01-11T00:39:53.407Z,946.67
2023-01-11T00:42:19.779Z,946.64
2023-01-11T00:44:46.138Z,946.68
2023-01-11T00:47:12.520Z,946.67
2023-01-11T00:49:38.859Z,946.61
2023-01-11T00:52:05.202Z,946.65
2023-01-11T00:54:31.551Z,946.64
2023-01-11T00:56:57.893Z,946.69
2023-01-11T00:59:24.221Z,946.71
2023-01-11T01:01:50.630Z,946.79
2023-01-11T01:04:16.987Z,946.71
2023-01-11T01:06:43.413Z,946.66
2023-01-11T01:09:09.687Z,946.70
2023-01-11T01:11:36.030Z,946.72
2023-01-11T01:14:02.393Z,946.72
2023-01-11T01:16:28.773Z,946.74
2023-01-11T01:18:55.100Z,946.77
2023-01-11T01:21:21.444Z,946.78
2023-01-11T01:23:47.817Z,946.76
2023-01-11T01:26:14.193Z,946.79
2023-01-11T01:28:40.614Z,946.80
2023-01-11T01:31:06.993Z,946.79
2023-01-11T01:33:33.335Z,946.92
2023-01-11T01:35:59.669Z,946.81
2023-01-11T01:38:25.991Z,946.83
2023-01-11T01:40:52.347Z,946.88
2023-01-11T01:43:18.679Z,946.88
2023-01-11T01:45:45.011Z,946.93
2023-01-11T01:48:11.342Z,947.02
2023-01-11T01:50:37.687Z,947.04
2023-01-11T01:53:04.024Z,947.02
2023-01-11T01:55:30.365Z,946.98
2023-01-11T01:57:56.687Z,946.99
2023-01-11T02:00:23.028Z,947.01
2023-01-11T02:02:49.434Z,947.02
2023-01-11T02:05:15.735Z,947.04
2023-01-11T02:07:42.091Z,947.00
2023-01-11T02:10:08.434Z,946.99
2023-01-11T02:12:34.801Z,947.07
2023-01-11T02:15:01.139Z,947.07
2023-01-11T02:17:27.502Z,947.14
2023-01-11T02:19:53.909Z,947.19
2023-01-11T02:22:20.272Z,947.23
2023-01-11T02:24:46.635Z,947.31
2023-01-11T02:27:12.952Z,947.34
2023-01-11T02:29:39.343Z,947.52
2023-01-11T02:32:05.695Z,947.48
2023-01-11T02:34:32.080Z,947.55
2023-01-11T02:36:58.431Z,947.54
2023-01-11T02:39:24.834Z,947.51
2023-01-11T02:41:51.186Z,947.53
2023-01-11T02:44:17.571Z,947.56
2023-01-11T02:46:44.035Z,947.65
2023-01-11T02:49:10.255Z,947.64
2023-01-11T02:51:36.599Z,947.65
2023-01-11T02:54:02.988Z,947.67
2023-01-11T02:56:29.304Z,947.64
2023-01-11T02:58:55.712Z,947.65
2023-01-11T03:01:22.092Z,947.66
2023-01-11T03:03:48.413Z,947.68
2023-01-11T03:06:14.801Z,947.70
2023-01-11T03:08:41.185Z,947.66
2023-01-11T03:11:07.501Z,947.68
2023-01-11T03:13:33.895Z,947.74
2023-01-11T03:16:00.269Z,947.66
2023-01-11T03:18:26.579Z,947.69
2023-01-11T03:20:52.941Z,947.62
2023-01-11T03:23:19.273Z,947.57
2023-01-11T03:25:45.617Z,947.63
2023-01-11T03:28:11.978Z,947.67
2023-01-11T03:30:38.355Z,947.61
2023-01-11T03:33:04.718Z,947.61
2023-01-11T03:35:31.139Z,947.52
2023-01-11T03:37:57.486Z,947.59
2023-01-11T03:40:23.917Z,947.64
2023-01-11T03:42:50.229Z,947.66
2023-01-11T03:45:16.581Z,947.68
2023-01-11T03:47:42.896Z,947.63
2023-01-11T03:50:09.245Z,947.70
2023-01-11T03:52:35.568Z,947.73
2023-01-11T03:55:01.967Z,947.70
2023-01-11T03:57:28.337Z,947.73
2023-01-11T03:59:54.689Z,947.78
2023-01-11T04:02:21.067Z,947.79
2023-01-11T04:04:47.384Z,947.76
2023-01-11T04:07:13.707Z,947.87
2023-01-11T04:09:40.086Z,947.80
2023-01-11T04:12:06.493Z,947.79
2023-01-11T04:14:32.816Z,947.83
2023-01-11T04:16:59.141Z,947.80
2023-01-11T04:19:25.482Z,947.93
2023-01-11T04:21:51.805Z,947.94
2023-01-11T04:24:18.148Z,947.97
2023-01-11T04:26:44.514Z,947.96
2023-01-11T04:29:10.890Z,948.01
2023-01-11T04:31:37.335Z,948.05
2023-01-11T04:34:03.564Z,948.08
2023-01-11T04:36:29.923Z,948.10
2023-01-11T04:38:56.254Z,948.10
2023-01-11T04:41:23.734Z,948.16
2023-01-11T04:43:49.036Z,948.16
2023-01-11T04:46:15.404Z,948.12
2023-01-11T04:48:41.734Z,948.11
2023-01-11T04:51:08.101Z,948.15
2023-01-11T04:53:34.452Z,948.20
2023-01-11T04:56:00.817Z,948.25
2023-01-11T04:58:27.212Z,948.27
2023-01-11T05:00:53.639Z,948.27
2023-01-11T05:03:19.909Z,948.33
2023-01-11T05:05:46.235Z,948.36
2023-01-11T05:08:12.585Z,948.34
2023-01-11T05:10:38.940Z,948.43
2023-01-11T05:13:05.328Z,948.49
2023-01-11T05:15:31.677Z,948.47
2023-01-11T05:17:58.021Z,948.50
2023-01-11T05:20:24.381Z,948.52
2023-01-11T05:22:50.821Z,948.46
2023-01-11T05:25:17.147Z,948.46
2023-01-11T05:27:43.486Z,948.54
2023-01-11T05:30:09.820Z,948.53
2023-01-11T05:32:36.151Z,948.59
2023-01-11T05:35:02.515Z,948.54
2023-01-11T05:37:28.854Z,948.63
2023-01-11T05:39:55.182Z,948.76
2023-01-11T05:42:22.292Z,948.79
2023-01-11T05:44:47.896Z,948.73
2023-01-11T05:47:14.301Z,948.76
2023-01-11T05:49:40.652Z,948.76
2023-01-11T05:52:07.056Z,948.79
2023-01-11T05:54:33.373Z,948.79
2023-01-11T05:56:59.752Z,948.83
2023-01-11T05:59:26.063Z,948.84
2023-01-11T06:01:52.498Z,948.89
2023-01-11T06:04:18.799Z,948.89
2023-01-11T06:06:45.168Z,948.88
2023-01-11T06:09:11.527Z,948.98
2023-01-11T06:11:37.916Z,948.96
2023-01-11T06:14:04.278Z,949.03
2023-01-11T06:16:30.904Z,949.05
2023-01-11T06:18:57.487Z,949.13
2023-01-11T06:21:23.999Z,949.20
2023-01-11T06:23:50.445Z,949.24
2023-01-11T06:26:16.810Z,949.26
2023-01-11T06:28:43.184Z,949.22
2023-01-11T06:31:09.626Z,949.35
2023-01-11T06:33:36.038Z,949.36
2023-01-11T06:36:02.403Z,949.41
2023-01-11T06:38:28.739Z,949.44
2023-01-11T06:40:55.152Z,949.40
2023-01-11T06:43:21.498Z,949.37
2023-01-11T06:45:48.029Z,949.36
2023-01-11T06:48:14.384Z,949.48
2023-01-11T06:50:40.781Z,949.52
2023-01-11T06:53:07.132Z,949.55
2023-01-11T06:55:33.495Z,949.54
2023-01-11T06:57:59.952Z,949.53
2023-01-11T07:00:26.288Z,949.47
2023-01-11T07:02:52.650Z,949.56
2023-01-11T07:05:19.710Z,949.61
2023-01-11T07:07:45.389Z,949.73
2023-01-11T07:10:11.767Z,949.76
2023-01-11T07:12:38.132Z,949.78
2023-01-11T07:15:04.486Z,949.88
2023-01-11T07:17:30.808Z,949.86
2023-01-11T07:19:57.200Z,949.91
2023-01-11T07:22:23.588Z,949.89
2023-01-11T07:24:49.978Z,949.92
2023-01-11T07:27:16.327Z,949.92
2023-01-11T07:29:42.672Z,950.01
2023-01-11T07:32:09.073Z,949.95
2023-01-11T07:34:35.559Z,949.99
2023-01-11T07:37:01.750Z,950.03
2023-01-11T07:39:42.203Z,949.99
2023-01-11T07:41:54.523Z,949.96
2023-01-11T07:44:20.868Z,950.09
2023-01-11T07:46:47.330Z,950.11
2023-01-11T07:49:13.614Z,950.12
2023-01-11T07:51:40.078Z,950.20
2023-01-11T07:54:06.480Z,950.21
2023-01-11T07:56:32.837Z,950.28
2023-01-11T07:58:59.178Z,950.25
2023-01-11T08:01:25.634Z,950.39
2023-01-11T08:03:52.090Z,950.39
2023-01-11T08:06:18.675Z,950.36
2023-01-11T08:08:45.069Z,950.40
2023-01-11T08:11:11.392Z,950.51
2023-01-11T08:13:37.803Z,950.55
2023-01-11T08:16:04.199Z,950.59
2023-01-11T08:18:30.500Z,950.56
2023-01-11T08:20:56.818Z,950.68
2023-01-11T08:23:23.171Z,950.74
2023-01-11T08:25:49.491Z,950.77
2023-01-11T08:28:15.899Z,950.82
2023-01-11T08:30:42.305Z,950.88
2023-01-11T08:33:08.669Z,950.89
2023-01-11T08:35:35.029Z,950.91
2023-01-11T08:38:01.417Z,950.92
2023-01-11T08:40:27.778Z,950.93
2023-01-11T08:42:54.108Z,950.94
2023-01-11T08:45:20.434Z,950.96
2023-01-11T08:47:46.830Z,950.93
2023-01-11T08:50:13.188Z,950.97
2023-01-11T08:52:39.575Z,950.99
2023-01-11T08:55:05.932Z,951.08
2023-01-11T08:57:32.277Z,951.06
2023-01-11T08:59:58.654Z,951.14
2023-01-11T09:02:25.067Z,951.17
2023-01-11T09:04:51.454Z,951.16
2023-01-11T09:07:17.835Z,951.11
2023-01-11T09:09:44.233Z,951.18
2023-01-11T09:12:10.615Z,951.19
2023-01-11T09:14:37.021Z,951.13
2023-01-11T09:17:03.446Z,951.08
2023-01-11T09:19:29.823Z,951.06
2023-01-11T09:21:56.220Z,951.11
2023-01-11T09:24:22.537Z,951.10
2023-01-11T09:26:48.970Z,951.14
2023-01-11T09:29:15.339Z,951.09
2023-01-11T09:31:41.700Z,951.12
2023-01-11T09:34:08.010Z,951.10
2023-01-11T09:36:34.401Z,951.22
2023-01-11T09:39:00.775Z,951.12
2023-01-11T09:41:27.154Z,951.18
2023-01-11T09:43:53.562Z,951.16
2023-01-11T09:46:20.040Z,951.14
2023-01-11T09:48:46.265Z,951.18
2023-01-11T09:51:12.716Z,951.16
2023-01-11T09:53:39.086Z,951.15
2023-01-11T09:56:05.664Z,951.10
2023-01-11T09:58:32.092Z,951.15
2023-01-11T10:01:01.051Z,951.13
2023-01-11T10:03:24.799Z,951.21
2023-01-11T10:05:51.268Z,951.20
2023-01-11T10:18:26.625Z,951.25
2023-01-11T10:18:32.761Z,951.29
2023-01-11T10:20:29.456Z,951.29
2023-01-11T10:22:55.736Z,951.23
2023-01-11T10:25:22.103Z,951.28
2023-01-11T10:27:48.490Z,951.25
2023-01-11T10:30:14.865Z,951.23
2023-01-11T10:32:41.229Z,951.19
2023-01-11T10:35:07.577Z,951.19
2023-01-11T10:37:33.907Z,951.23
2023-01-11T10:40:00.255Z,951.22
2023-01-11T10:42:26.622Z,951.20
2023-01-11T10:44:53.028Z,951.13
2023-01-11T10:47:19.376Z,951.09
2023-01-11T10:49:45.782Z,951.09
2023-01-11T10:52:12.174Z,951.02
2023-01-11T10:54:38.517Z,951.04
2023-01-11T10:57:06.704Z,951.07
2023-01-11T10:59:31.307Z,951.08
2023-01-11T11:01:57.710Z,951.13
2023-01-11T11:04:24.082Z,951.02
2023-01-11T11:06:50.382Z,950.96
2023-01-11T11:09:16.816Z,950.97
2023-01-11T11:11:43.162Z,950.99
2023-01-11T11:14:09.531Z,950.97
2023-01-11T11:16:35.970Z,950.93
2023-01-11T11:19:02.228Z,951.03
2023-01-11T11:21:28.606Z,951.01
2023-01-11T11:23:54.971Z,951.03
2023-01-11T11:26:21.327Z,951.05
2023-01-11T11:28:47.784Z,951.14
2023-01-11T11:31:14.164Z,951.14
2023-01-11T11:33:40.473Z,951.15
2023-01-11T11:36:06.848Z,951.10
2023-01-11T11:38:33.182Z,951.15
2023-01-11T11:40:59.553Z,951.18
2023-01-11T11:43:25.885Z,951.25
2023-01-11T11:45:52.280Z,951.16
2023-01-11T11:48:18.632Z,951.14
2023-01-11T11:50:45.813Z,951.16
2023-01-11T11:53:11.361Z,951.20
2023-01-11T11:55:37.706Z,951.23
2023-01-11T11:58:04.071Z,951.22
2023-01-11T12:00:30.397Z,951.20
2023-01-11T12:02:56.779Z,951.22
2023-01-11T12:05:23.185Z,951.23
2023-01-11T12:07:55.110Z,951.21
2023-01-11T12:10:15.842Z,951.18
2023-01-11T12:12:42.235Z,951.20
2023-01-11T12:15:08.585Z,951.21
2023-01-11T12:17:34.967Z,951.28
2023-01-11T12:20:01.293Z,951.30
2023-01-11T12:22:27.635Z,951.32
2023-01-11T12:24:54.044Z,951.34
2023-01-11T12:27:20.487Z,951.29
2023-01-11T12:29:46.801Z,951.35
2023-01-11T12:32:13.170Z,951.34
2023-01-11T12:34:39.522Z,951.35
2023-01-11T12:37:05.832Z,951.37
2023-01-11T12:39:32.196Z,951.38
2023-01-11T12:41:58.517Z,951.35
2023-01-11T12:44:24.863Z,951.40
2023-01-11T12:46:51.278Z,951.43
2023-01-11T12:49:17.618Z,951.40
2023-01-11T12:51:43.988Z,951.49
2023-01-11T12:54:10.342Z,951.48
2023-01-11T12:56:36.700Z,951.48
2023-01-11T12:59:03.036Z,951.56
2023-01-11T13:01:29.484Z,951.58
2023-01-11T13:03:55.778Z,951.60
2023-01-11T13:06:22.690Z,951.59
2023-01-11T13:08:48.476Z,951.56
2023-01-11T13:11:14.857Z,951.64
2023-01-11T13:13:41.218Z,951.61
2023-01-11T13:16:07.609Z,951.67
2023-01-11T13:18:33.959Z,951.68
2023-01-11T13:21:02.538Z,951.72
2023-01-11T13:23:26.623Z,951.74
2023-01-11T13:25:52.973Z,951.66
2023-01-11T13:28:23.879Z,951.68
2023-01-11T13:30:45.832Z,951.69
2023-01-11T13:33:12.159Z,951.67
2023-01-11T13:35:38.535Z,951.56
2023-01-11T13:38:04.887Z,951.62
2023-01-11T13:40:31.269Z,951.68
2023-01-11T13:42:57.583Z,951.66
2023-01-11T13:45:23.968Z,951.76
2023-01-11T13:47:50.324Z,951.75
2023-01-11T13:50:16.643Z,951.79
2023-01-11T13:52:43.108Z,951.76
2023-01-11T13:55:14.200Z,951.86
2023-01-11T13:57:35.837Z,951.80
2023-01-11T14:00:02.230Z,951.84
2023-01-11T14:02:28.557Z,951.89
2023-01-11T14:04:54.910Z,951.91
2023-01-11T14:07:21.290Z,951.91
2023-01-11T14:09:47.605Z,951.84
2023-01-11T14:12:13.953Z,951.81
2023-01-11T14:14:40.309Z,951.88
2023-01-11T14:17:06.660Z,951.85
2023-01-11T14:19:33.076Z,951.91
2023-01-11T14:21:59.399Z,951.92
2023-01-11T14:24:25.771Z,951.99
2023-01-11T14:26:52.218Z,951.96
2023-01-11T14:29:18.489Z,952.00
2023-01-11T14:31:44.812Z,952.05
2023-01-11T14:34:11.141Z,952.04
2023-01-11T14:36:37.522Z,952.07
2023-01-11T14:39:03.842Z,952.09
2023-01-11T14:41:30.173Z,952.14
2023-01-11T14:43:56.546Z,952.19
2023-01-11T14:46:22.984Z,952.22
2023-01-11T14:48:49.211Z,952.20
2023-01-11T14:51:15.562Z,952.27
2023-01-11T14:53:41.935Z,952.36
2023-01-11T14:56:08.300Z,952.31
2023-01-11T14:58:34.623Z,952.30
2023-01-11T15:01:01.014Z,952.30
2023-01-11T15:03:27.371Z,952.35
2023-01-11T15:05:53.753Z,952.38
2023-01-11T15:08:20.079Z,952.43
2023-01-11T15:10:46.801Z,952.53
2023-01-11T15:13:13.162Z,952.50
2023-01-11T15:15:39.551Z,952.45
2023-01-11T15:18:05.924Z,952.53
2023-01-11T15:20:32.330Z,952.52
2023-01-11T15:22:58.700Z,952.48
2023-01-11T15:25:25.063Z,952.51
2023-01-11T15:27:51.415Z,952.51
2023-01-11T15:30:17.763Z,952.56
2023-01-11T15:32:44.124Z,952.57
2023-01-11T15:35:10.463Z,952.57
2023-01-11T15:37:36.835Z,952.51
2023-01-11T15:40:03.218Z,952.53
2023-01-11T15:42:29.605Z,952.52
2023-01-11T15:44:55.928Z,952.59
2023-01-11T15:47:22.258Z,952.59
2023-01-11T15:49:48.623Z,952.55
2023-01-11T15:52:14.958Z,952.59
2023-01-11T15:54:41.351Z,952.65
2023-01-11T15:57:07.668Z,952.76
2023-01-11T15:59:34.048Z,952.79
2023-01-11T16:02:00.397Z,952.82
2023-01-11T16:04:26.835Z,952.90
2023-01-11T16:06:53.123Z,952.80
2023-01-11T16:09:19.514Z,952.86
2023-01-11T16:11:45.943Z,952.86
2023-01-11T16:14:12.244Z,952.86
2023-01-11T16:16:38.616Z,952.93
2023-01-11T16:19:04.939Z,952.98
2023-01-11T16:21:31.303Z,953.00
2023-01-11T16:23:57.677Z,953.04
2023-01-11T16:26:24.066Z,953.09
2023-01-11T16:28:50.387Z,953.10
2023-01-11T16:31:16.744Z,953.10
2023-01-11T16:33:43.069Z,953.13
2023-01-11T16:36:09.446Z,953.10
2023-01-11T16:38:35.795Z,953.13
2023-01-11T16:41:02.123Z,953.15
2023-01-11T16:43:29.518Z,953.17
2023-01-11T16:45:56.027Z,953.22
2023-01-11T16:48:22.294Z,953.28
2023-01-11T16:50:48.678Z,953.27
2023-01-11T16:53:14.999Z,953.27
2023-01-11T16:55:41.390Z,953.31
2023-01-11T16:58:07.780Z,953.34
2023-01-11T17:00:34.133Z,953.31
2023-01-11T17:03:00.487Z,953.45
2023-01-11T17:05:26.840Z,953.38
2023-01-11T17:07:53.237Z,953.45
2023-01-11T17:10:19.575Z,953.42
2023-01-11T17:12:45.917Z,953.45
2023-01-11T17:15:12.264Z,953.47
2023-01-11T17:17:38.754Z,953.45
2023-01-11T17:20:04.934Z,953.48
2023-01-11T17:22:31.313Z,953.45
2023-01-11T17:24:57.671Z,953.50
2023-01-11T17:27:24.421Z,953.51
2023-01-11T17:29:50.745Z,953.58
2023-01-11T17:32:17.124Z,953.59
2023-01-11T17:34:43.449Z,953.61
2023-01-11T17:37:09.824Z,953.57
2023-01-11T17:39:36.180Z,953.66
2023-01-11T17:42:02.565Z,953.67
2023-01-11T17:44:28.892Z,953.67
2023-01-11T17:46:55.276Z,953.65
2023-01-11T17:49:21.662Z,953.65
2023-01-11T17:51:48.008Z,953.71
2023-01-11T17:54:14.365Z,953.63
2023-01-11T17:56:40.712Z,953.67
2023-01-11T17:59:07.065Z,953.72
2023-01-11T18:01:33.512Z,953.76
2023-01-11T18:03:59.860Z,953.70
2023-01-11T18:06:26.311Z,953.71
2023-01-11T18:08:52.772Z,953.67
2023-01-11T18:11:19.192Z,953.65
2023-01-11T18:13:45.559Z,953.68
2023-01-11T18:16:12.006Z,953.69
2023-01-11T18:18:38.330Z,953.64
2023-01-11T18:21:04.671Z,953.68
2023-01-11T18:23:31.029Z,953.67
2023-01-11T18:25:57.423Z,953.68
2023-01-11T18:28:23.790Z,953.62
2023-01-11T18:30:50.192Z,953.64
2023-01-11T18:33:16.532Z,953.65
2023-01-11T18:35:42.901Z,953.68
2023-01-11T18:38:09.264Z,953.69
2023-01-11T18:40:35.622Z,953.71
2023-01-11T18:43:01.989Z,953.65
2023-01-11T18:45:28.349Z,953.76
2023-01-11T18:47:54.681Z,953.72
2023-01-11T18:50:21.033Z,953.72
2023-01-11T18:52:47.365Z,953.75
2023-01-11T18:55:13.749Z,953.79
2023-01-11T18:57:40.104Z,953.77
2023-01-11T19:00:06.447Z,953.84
2023-01-11T19:02:32.771Z,953.82
2023-01-11T19:04:59.157Z,953.84
2023-01-11T19:07:25.528Z,953.91
2023-01-11T19:09:51.915Z,953.84
2023-01-11T19:12:18.290Z,953.91
2023-01-11T19:14:44.620Z,953.90
2023-01-11T19:17:10.952Z,953.89
2023-01-11T19:19:37.343Z,953.92
2023-01-11T19:22:03.689Z,953.95
2023-01-11T19:24:30.024Z,954.07
2023-01-11T19:26:56.430Z,954.09
2023-01-11T19:29:22.756Z,954.18
2023-01-11T19:31:49.131Z,954.21
2023-01-11T19:34:15.499Z,954.17
2023-01-11T19:36:41.889Z,954.24
2023-01-11T19:39:08.244Z,954.19
2023-01-11T19:41:34.583Z,954.14
2023-01-11T19:44:00.929Z,954.24
2023-01-11T19:46:31.907Z,954.31
2023-01-11T19:48:53.769Z,954.28
2023-01-11T19:51:20.086Z,954.35
2023-01-11T19:53:46.493Z,954.30
2023-01-11T19:56:12.818Z,954.32
2023-01-11T19:58:39.209Z,954.33
2023-01-11T20:01:05.637Z,954.34
2023-01-11T20:03:32.098Z,954.28
2023-01-11T20:05:58.601Z,954.28
2023-01-11T20:08:25.057Z,954.34
2023-01-11T20:10:51.378Z,954.35
2023-01-11T20:13:18.078Z,954.34
2023-01-11T20:15:44.415Z,954.32
2023-01-11T20:18:10.786Z,954.32
2023-01-11T20:20:37.141Z,954.33
2023-01-11T20:23:03.483Z,954.37
2023-01-11T20:25:30.233Z,954.38
2023-01-11T20:27:56.680Z,954.40
2023-01-11T20:30:23.053Z,954.41
2023-01-11T20:32:49.426Z,954.38
2023-01-11T20:35:15.721Z,954.46
2023-01-11T20:37:42.116Z,954.38
2023-01-11T20:40:08.475Z,954.41
2023-01-11T20:42:34.873Z,954.44
2023-01-11T20:45:01.281Z,954.46
2023-01-11T20:47:27.649Z,954.45
2023-01-11T20:49:54.011Z,954.37
2023-01-11T20:52:20.375Z,954.35
2023-01-11T20:54:46.741Z,954.39
2023-01-11T20:57:13.124Z,954.38
2023-01-11T20:59:39.470Z,954.33
2023-01-11T21:02:05.887Z,954.30
2023-01-11T21:04:32.199Z,954.26
2023-01-11T21:06:58.540Z,954.31
2023-01-11T21:09:25.098Z,954.21
2023-01-11T21:11:51.464Z,954.26
2023-01-11T21:14:17.780Z,954.26
2023-01-11T21:16:44.217Z,954.28
2023-01-11T21:19:10.572Z,954.29
2023-01-11T21:21:36.903Z,954.30
2023-01-11T21:24:03.273Z,954.22
2023-01-11T21:26:29.679Z,954.25
2023-01-11T21:28:55.984Z,954.22
2023-01-11T21:31:22.357Z,954.17
2023-01-11T21:33:48.699Z,954.23
2023-01-11T21:36:15.075Z,954.21
2023-01-11T21:38:41.441Z,954.21
2023-01-11T21:41:07.783Z,954.19
2023-01-11T21:43:34.091Z,954.17
2023-01-11T21:46:00.489Z,954.24
2023-01-11T21:48:26.808Z,954.27
2023-01-11T21:50:53.230Z,954.26
2023-01-11T21:53:19.588Z,954.21
2023-01-11T21:55:45.920Z,954.24
2023-01-11T21:58:12.305Z,954.25
2023-01-11T22:00:38.784Z,954.24
2023-01-11T22:03:04.987Z,954.25
2023-01-11T22:05:31.332Z,954.24
2023-01-11T22:07:57.714Z,954.24
2023-01-11T22:10:24.099Z,954.30
2023-01-11T22:12:50.417Z,954.27
2023-01-11T22:15:16.816Z,954.30
2023-01-11T22:17:43.141Z,954.27
2023-01-11T22:20:09.510Z,954.22
2023-01-11T22:22:35.830Z,954.16
2023-01-11T22:25:02.222Z,954.10
2023-01-11T22:27:28.552Z,954.13
2023-01-11T22:29:54.931Z,954.15
2023-01-11T22:32:21.252Z,954.13
2023-01-11T22:34:47.643Z,954.10
2023-01-11T22:37:13.936Z,954.11
2023-01-11T22:39:40.328Z,954.05
2023-01-11T22:42:06.669Z,954.03
2023-01-11T22:44:33.043Z,954.03
2023-01-11T22:47:00.460Z,954.09
2023-01-11T22:49:25.853Z,954.08
2023-01-11T22:51:52.209Z,954.06
2023-01-11T22:54:18.604Z,953.97
2023-01-11T22:56:44.961Z,953.95
2023-01-11T22:59:11.291Z,953.97
2023-01-11T23:01:37.648Z,954.03
2023-01-11T23:04:04.110Z,954.01
2023-01-11T23:06:30.390Z,954.11
2023-01-11T23:08:56.815Z,954.03
2023-01-11T23:11:23.213Z,954.05
2023-01-11T23:13:49.574Z,954.08
2023-01-11T23:16:15.952Z,954.09
2023-01-11T23:18:42.225Z,954.08
2023-01-11T23:21:08.599Z,954.00
2023-01-11T23:23:34.941Z,953.99
2023-01-11T23:26:01.304Z,953.98
2023-01-11T23:28:27.707Z,954.05
2023-01-11T23:30:54.065Z,954.01
2023-01-11T23:33:20.413Z,953.95
2023-01-11T23:35:46.765Z,954.03
2023-01-11T23:38:13.129Z,954.00
2023-01-11T23:40:39.485Z,954.02
2023-01-11T23:43:05.836Z,954.00
2023-01-11T23:45:32.249Z,954.03
2023-01-11T23:47:58.536Z,954.16
2023-01-11T23:50:24.908Z,954.12
2023-01-11T23:52:51.243Z,954.12
2023-01-11T23:55:17.616Z,954.03
2023-01-11T23:57:43.983Z,954.05
